Time;durP1;ratioP1;P1;durP2;ratioP2;P2;SDS_P1;SDS_P2;PMS_P1;PMS_P2;Temp;Humidity;BMP_temperature;BMP_pressure;BME280_temperature;BME280_humidity;BME280_pressure;Samples;Min_cycle;Max_cycle;Signal;HPM_P1;HPM_P2
2022/05/17 00:01:18;;;;;;;;;;;11.70;84.80;;;;;;5072216;28;19992;-69
2022/05/17 00:03:44;;;;;;;;;;;11.70;84.60;;;;;;5072192;28;19916;-69
2022/05/17 00:06:10;;;;;;;;;;;11.60;84.60;;;;;;5072702;28;19963;-69
2022/05/17 00:08:35;;;;;;;;;;;11.70;84.80;;;;;;5072117;28;20328;-69
2022/05/17 00:11:01;;;;;;;;;;;11.70;84.50;;;;;;5087809;28;19927;-70
2022/05/17 00:13:26;;;;;;;;;;;11.70;84.50;;;;;;5072041;28;20275;-70
2022/05/17 00:15:52;;;;;;;;;;;11.70;84.60;;;;;;5071993;28;19935;-70
2022/05/17 00:18:19;;;;;;;;;;;11.60;85.00;;;;;;5071806;28;20054;-69
2022/05/17 00:20:44;;;;;;;;;;;11.60;85.30;;;;;;5072118;28;20085;-69
2022/05/17 00:23:12;;;;;;;;;;;11.60;85.30;;;;;;5072222;28;20009;-69
2022/05/17 00:25:38;;;;;;;;;;;11.60;85.50;;;;;;5071913;28;20050;-70
2022/05/17 00:28:04;;;;;;;;;;;11.60;85.30;;;;;;5071682;28;20366;-70
2022/05/17 00:30:29;;;;;;;;;;;11.60;85.60;;;;;;5071678;28;20024;-70
2022/05/17 00:32:55;;;;;;;;;;;11.60;84.40;;;;;;5071869;28;20011;-70
2022/05/17 00:35:20;;;;;;;;;;;11.70;84.10;;;;;;5071470;28;20391;-70
2022/05/17 00:37:46;;;;;;;;;;;11.70;84.20;;;;;;5071607;28;19916;-70
2022/05/17 00:40:12;;;;;;;;;;;11.80;83.60;;;;;;5072078;28;19913;-70
2022/05/17 00:42:37;;;;;;;;;;;11.80;83.80;;;;;;5071560;28;19913;-70
2022/05/17 00:45:03;;;;;;;;;;;11.80;83.40;;;;;;5071735;28;20279;-70
2022/05/17 00:47:36;;;;;;;;;;;11.90;83.00;;;;;;5071639;28;19916;-70
2022/05/17 00:50:01;;;;;;;;;;;11.90;82.10;;;;;;5071954;28;20187;-70
2022/05/17 00:52:30;;;;;;;;;;;12.50;82.00;;;;;;5071419;28;20356;-71
2022/05/17 00:54:58;;;;;;;;;;;11.90;81.90;;;;;;5071710;28;20380;-70
2022/05/17 00:57:36;;;;;;;;;;;12.00;81.60;;;;;;5071409;28;20010;-70
2022/05/17 01:00:05;;;;;;;;;;;12.00;81.30;;;;;;5071717;28;19955;-70
2022/05/17 01:02:31;;;;;;;;;;;12.00;81.60;;;;;;5071335;28;19912;-70
2022/05/17 01:04:58;;;;;;;;;;;12.00;81.20;;;;;;5071159;28;19919;-70
2022/05/17 01:07:25;;;;;;;;;;;12.00;81.20;;;;;;5086815;28;20292;-70
2022/05/17 01:09:50;;;;;;;;;;;12.10;81.00;;;;;;5071565;28;20356;-70
2022/05/17 01:12:16;;;;;;;;;;;12.00;81.00;;;;;;5071177;28;19925;-70
2022/05/17 01:15:00;;;;;;;;;;;12.00;81.20;;;;;;5071500;28;20371;-70
2022/05/17 01:17:27;;;;;;;;;;;12.00;81.40;;;;;;5071341;28;19916;-70
2022/05/17 01:19:52;;;;;;;;;;;11.90;81.60;;;;;;5071615;28;20412;-70
2022/05/17 01:22:18;;;;;;;;;;;11.90;81.80;;;;;;5071168;28;20227;-70
2022/05/17 01:24:43;;;;;;;;;;;11.90;81.70;;;;;;5086839;28;19913;-70
2022/05/17 01:27:11;;;;;;;;;;;11.90;81.80;;;;;;5071490;28;20326;-70
2022/05/17 01:29:38;;;;;;;;;;;11.90;81.30;;;;;;5071272;28;19920;-70
2022/05/17 01:32:04;;;;;;;;;;;11.90;81.50;;;;;;5071297;28;19920;-71
2022/05/17 01:34:29;;;;;;;;;;;11.90;81.30;;;;;;5071079;28;19913;-71
2022/05/17 01:36:55;;;;;;;;;;;11.90;81.10;;;;;;5071068;28;19935;-71
2022/05/17 01:39:20;;;;;;;;;;;11.90;81.20;;;;;;5071118;28;19956;-71
2022/05/17 01:41:46;;;;;;;;;;;11.80;81.10;;;;;;5071127;28;19923;-71
2022/05/17 01:44:11;;;;;;;;;;;11.80;81.40;;;;;;5070979;28;20313;-71
2022/05/17 01:46:37;;;;;;;;;;;11.80;81.30;;;;;;5071036;28;19919;-70
2022/05/17 01:49:02;;;;;;;;;;;11.80;81.30;;;;;;5070949;28;19912;-71
2022/05/17 01:51:28;;;;;;;;;;;11.90;81.40;;;;;;5071035;28;19916;-71
2022/05/17 01:53:53;;;;;;;;;;;11.80;81.40;;;;;;5070995;28;19917;-70
2022/05/17 01:56:19;;;;;;;;;;;11.80;81.50;;;;;;5071089;28;19912;-70
2022/05/17 01:58:44;;;;;;;;;;;11.70;81.80;;;;;;5073783;28;20387;-71
2022/05/17 02:01:10;;;;;;;;;;;11.70;81.90;;;;;;5090058;28;20331;-70
2022/05/17 02:03:36;;;;;;;;;;;11.60;81.80;;;;;;5074460;28;19921;-70
2022/05/17 02:06:02;;;;;;;;;;;11.60;82.60;;;;;;5074451;28;19912;-71
2022/05/17 02:08:27;;;;;;;;;;;11.50;82.50;;;;;;5074384;28;19912;-71
2022/05/17 02:10:53;;;;;;;;;;;11.40;83.00;;;;;;5075140;28;19958;-71
2022/05/17 02:13:19;;;;;;;;;;;11.40;82.40;;;;;;5074167;28;19994;-71
2022/05/17 02:15:45;;;;;;;;;;;11.40;82.50;;;;;;5075026;28;19912;-70
2022/05/17 02:18:10;;;;;;;;;;;11.30;82.70;;;;;;5074562;28;19965;-70
2022/05/17 02:20:36;;;;;;;;;;;11.30;82.80;;;;;;5074144;28;19923;-71
2022/05/17 02:23:01;;;;;;;;;;;11.20;83.00;;;;;;5074239;28;20011;-70
2022/05/17 02:25:27;;;;;;;;;;;11.10;83.00;;;;;;5089704;28;19912;-70
2022/05/17 02:27:54;;;;;;;;;;;11.10;83.10;;;;;;5073583;28;20399;-70
2022/05/17 02:30:20;;;;;;;;;;;11.10;83.20;;;;;;5074322;28;19947;-70
2022/05/17 02:32:46;;;;;;;;;;;11.10;83.20;;;;;;5073988;28;19921;-70
2022/05/17 02:35:12;;;;;;;;;;;11.10;83.50;;;;;;5073881;28;19946;-69
2022/05/17 02:37:38;;;;;;;;;;;11.00;83.30;;;;;;5073993;28;19918;-69
2022/05/17 02:40:05;;;;;;;;;;;10.90;83.70;;;;;;5074175;28;20007;-69
2022/05/17 02:42:30;;;;;;;;;;;10.90;83.80;;;;;;5074189;28;19913;-70
2022/05/17 02:44:55;;;;;;;;;;;10.90;83.90;;;;;;5074060;28;19917;-69
2022/05/17 02:47:21;;;;;;;;;;;10.90;84.10;;;;;;5073895;28;20237;-69
2022/05/17 02:49:47;;;;;;;;;;;10.80;84.10;;;;;;5073522;28;19916;-70
2022/05/17 02:52:12;;;;;;;;;;;10.80;84.10;;;;;;5073697;28;20376;-70
2022/05/17 02:54:39;;;;;;;;;;;10.80;84.20;;;;;;5073913;28;19965;-70
2022/05/17 02:57:06;;;;;;;;;;;10.80;84.40;;;;;;5072706;28;19920;-70
2022/05/17 02:59:31;;;;;;;;;;;10.80;84.30;;;;;;5073648;28;20030;-70
2022/05/17 03:01:57;;;;;;;;;;;10.80;84.20;;;;;;5073544;28;20010;-70
2022/05/17 03:04:22;;;;;;;;;;;10.80;84.30;;;;;;5088908;28;19965;-70
2022/05/17 03:06:48;;;;;;;;;;;10.90;85.10;;;;;;5088876;28;19916;-70
2022/05/17 03:09:14;;;;;;;;;;;10.90;84.40;;;;;;5073175;28;20042;-69
2022/05/17 03:11:42;;;;;;;;;;;10.90;84.60;;;;;;5073724;28;20112;-70
2022/05/17 03:14:08;;;;;;;;;;;10.90;84.50;;;;;;5073201;28;19949;-70
2022/05/17 03:16:33;;;;;;;;;;;10.90;84.60;;;;;;5073365;28;19919;-70
2022/05/17 03:18:59;;;;;;;;;;;11.00;84.80;;;;;;5073369;28;20320;-70
2022/05/17 03:21:25;;;;;;;;;;;11.00;84.80;;;;;;5073072;28;19963;-70
2022/05/17 03:23:50;;;;;;;;;;;11.10;84.50;;;;;;5073219;28;20378;-69
2022/05/17 03:26:16;;;;;;;;;;;11.20;84.50;;;;;;5073084;28;20016;-69
2022/05/17 03:28:41;;;;;;;;;;;11.30;84.20;;;;;;5073163;28;19916;-70
2022/05/17 03:31:08;;;;;;;;;;;11.30;84.10;;;;;;5073128;28;20324;-70
2022/05/17 03:33:33;;;;;;;;;;;11.30;84.30;;;;;;5072973;28;19974;-70
2022/05/17 03:35:59;;;;;;;;;;;11.30;84.60;;;;;;5072963;28;19974;-70
2022/05/17 03:38:24;;;;;;;;;;;11.20;84.60;;;;;;5072896;28;19909;-70
2022/05/17 03:40:51;;;;;;;;;;;11.20;84.80;;;;;;5072927;28;20003;-70
2022/05/17 03:43:16;;;;;;;;;;;11.20;85.10;;;;;;5072862;28;19955;-70
2022/05/17 03:45:42;;;;;;;;;;;11.20;85.20;;;;;;5072702;28;19974;-70
2022/05/17 03:48:07;;;;;;;;;;;11.20;85.20;;;;;;5072575;28;20436;-70
2022/05/17 03:50:33;;;;;;;;;;;11.20;85.30;;;;;;5072418;28;19966;-70
2022/05/17 03:53:02;;;;;;;;;;;11.20;85.50;;;;;;5072518;28;20470;-70
2022/05/17 03:55:27;;;;;;;;;;;11.20;85.80;;;;;;5072615;28;20261;-70
2022/05/17 03:57:53;;;;;;;;;;;11.30;85.60;;;;;;5072557;28;19919;-70
2022/05/17 04:00:18;;;;;;;;;;;11.10;85.80;;;;;;5072210;28;19916;-70
2022/05/17 04:02:44;;;;;;;;;;;11.30;85.90;;;;;;5072361;28;19973;-70
2022/05/17 04:05:10;;;;;;;;;;;11.30;86.70;;;;;;5072503;28;19909;-70
2022/05/17 04:07:35;;;;;;;;;;;11.30;85.90;;;;;;5072585;28;19922;-70
2022/05/17 04:10:00;;;;;;;;;;;11.30;86.10;;;;;;5072169;28;20300;-70
2022/05/17 04:12:26;;;;;;;;;;;11.30;86.20;;;;;;5072342;28;19932;-70
2022/05/17 04:14:53;;;;;;;;;;;11.30;86.10;;;;;;5072553;28;19908;-70
2022/05/17 04:17:19;;;;;;;;;;;11.40;86.50;;;;;;5072368;28;19920;-71
2022/05/17 04:19:44;;;;;;;;;;;11.30;86.50;;;;;;5072317;28;19966;-71
2022/05/17 04:22:11;;;;;;;;;;;11.30;86.60;;;;;;5071915;28;20338;-70
2022/05/17 04:24:37;;;;;;;;;;;11.30;86.60;;;;;;5072259;28;19927;-69
2022/05/17 04:27:03;;;;;;;;;;;11.30;86.70;;;;;;5072188;28;19912;-70
2022/05/17 04:29:29;;;;;;;;;;;11.40;86.90;;;;;;5071934;28;20004;-71
2022/05/17 04:31:54;;;;;;;;;;;11.40;86.50;;;;;;5071897;28;19960;-71
2022/05/17 04:34:20;;;;;;;;;;;11.40;86.60;;;;;;5071781;28;19913;-70
2022/05/17 04:36:46;;;;;;;;;;;11.50;86.60;;;;;;5071805;28;19928;-69
2022/05/17 04:39:12;;;;;;;;;;;11.50;86.70;;;;;;5072049;28;19921;-70
2022/05/17 04:41:37;;;;;;;;;;;11.50;86.70;;;;;;5071755;28;19966;-70
2022/05/17 04:44:03;;;;;;;;;;;11.60;86.70;;;;;;5072065;28;20269;-70
2022/05/17 04:46:28;;;;;;;;;;;11.60;86.40;;;;;;5071446;28;19916;-70
2022/05/17 04:48:54;;;;;;;;;;;11.60;86.50;;;;;;5071725;28;19908;-71
2022/05/17 04:51:19;;;;;;;;;;;11.80;86.90;;;;;;5071883;28;19920;-70
2022/05/17 04:53:45;;;;;;;;;;;11.80;86.70;;;;;;5071572;28;19920;-70
2022/05/17 04:56:11;;;;;;;;;;;11.80;86.50;;;;;;5071555;28;19923;-70
2022/05/17 04:58:36;;;;;;;;;;;11.90;86.40;;;;;;5086909;28;19951;-70
2022/05/17 05:01:02;;;;;;;;;;;12.00;86.50;;;;;;5071338;28;20036;-70
2022/05/17 05:03:29;;;;;;;;;;;12.00;86.60;;;;;;5071451;28;19922;-70
2022/05/17 05:05:54;;;;;;;;;;;12.10;86.20;;;;;;5071771;28;19917;-70
2022/05/17 05:08:20;;;;;;;;;;;12.20;86.10;;;;;;5071435;28;19919;-70
2022/05/17 05:10:45;;;;;;;;;;;12.30;86.50;;;;;;5071505;28;20356;-70
2022/05/17 05:13:15;;;;;;;;;;;12.30;86.00;;;;;;5071736;28;19918;-70
2022/05/17 05:15:41;;;;;;;;;;;13.10;87.00;;;;;;5086608;28;19916;-70
2022/05/17 05:18:06;;;;;;;;;;;12.40;86.10;;;;;;5071361;28;19962;-70
2022/05/17 05:20:32;;;;;;;;;;;12.40;86.10;;;;;;5070120;28;20007;-71
2022/05/17 05:22:58;;;;;;;;;;;12.50;86.10;;;;;;5087090;28;20360;-70
2022/05/17 05:25:23;;;;;;;;;;;12.50;86.20;;;;;;5071683;28;19913;-70
2022/05/17 05:27:49;;;;;;;;;;;12.80;86.60;;;;;;5071259;28;19916;-71
2022/05/17 05:30:16;;;;;;;;;;;13.00;85.80;;;;;;5071028;28;19920;-71
2022/05/17 05:32:42;;;;;;;;;;;13.10;86.00;;;;;;5073905;28;19917;-70
2022/05/17 05:35:08;;;;;;;;;;;13.30;86.00;;;;;;5075093;28;20037;-69
2022/05/17 05:37:33;;;;;;;;;;;13.30;85.50;;;;;;5075244;28;19946;-70
2022/05/17 05:39:59;;;;;;;;;;;13.40;85.00;;;;;;5075806;28;19946;-70
2022/05/17 05:42:24;;;;;;;;;;;13.40;85.10;;;;;;5090690;28;20167;-70
2022/05/17 05:44:50;;;;;;;;;;;13.50;85.30;;;;;;5075251;28;19917;-70
2022/05/17 05:47:15;;;;;;;;;;;13.50;85.00;;;;;;5074935;28;20418;-70
2022/05/17 05:49:41;;;;;;;;;;;13.60;85.30;;;;;;5073492;28;19967;-70
2022/05/17 05:52:06;;;;;;;;;;;13.90;84.80;;;;;;5074715;28;19916;-70
2022/05/17 05:54:32;;;;;;;;;;;13.90;84.60;;;;;;5075158;28;19913;-71
2022/05/17 05:56:58;;;;;;;;;;;13.90;85.10;;;;;;5074763;28;19959;-71
2022/05/17 05:59:23;;;;;;;;;;;14.00;85.10;;;;;;5074740;28;20264;-70
2022/05/17 06:01:49;;;;;;;;;;;14.20;84.90;;;;;;5074851;28;19913;-71
2022/05/17 06:04:14;;;;;;;;;;;14.30;85.50;;;;;;5074343;28;19912;-70
2022/05/17 06:06:42;;;;;;;;;;;14.40;84.90;;;;;;5074544;28;20329;-70
2022/05/17 06:09:07;;;;;;;;;;;14.50;84.90;;;;;;5074759;28;20375;-70
2022/05/17 06:11:33;;;;;;;;;;;14.70;84.80;;;;;;5074693;28;19920;-70
2022/05/17 06:14:00;;;;;;;;;;;14.90;84.10;;;;;;5074243;28;19917;-70
2022/05/17 06:16:25;;;;;;;;;;;15.10;81.70;;;;;;5074561;28;20293;-70
2022/05/17 06:18:51;;;;;;;;;;;15.00;81.60;;;;;;5074276;28;19916;-70
2022/05/17 06:21:16;;;;;;;;;;;15.00;81.10;;;;;;5074101;28;20397;-70
2022/05/17 06:23:42;;;;;;;;;;;14.90;81.80;;;;;;5074169;28;19939;-70
2022/05/17 06:26:07;;;;;;;;;;;15.10;81.80;;;;;;5074465;28;19912;-70
2022/05/17 06:28:33;;;;;;;;;;;15.20;82.10;;;;;;5074334;28;20573;-70
2022/05/17 06:30:58;;;;;;;;;;;15.30;81.00;;;;;;5074145;28;19913;-70
2022/05/17 06:33:24;;;;;;;;;;;15.50;79.40;;;;;;5074207;28;20365;-70
2022/05/17 06:35:50;;;;;;;;;;;15.50;79.40;;;;;;5074384;28;19917;-70
2022/05/17 06:38:16;;;;;;;;;;;15.40;78.50;;;;;;5074523;28;19920;-71
2022/05/17 06:40:41;;;;;;;;;;;15.60;78.80;;;;;;5074208;28;19912;-71
2022/05/17 06:43:07;;;;;;;;;;;15.70;77.90;;;;;;5088771;28;19935;-71
2022/05/17 06:45:33;;;;;;;;;;;15.90;78.60;;;;;;5074185;28;20280;-71
2022/05/17 06:48:00;;;;;;;;;;;16.00;76.60;;;;;;5089618;28;20007;-71
2022/05/17 06:50:27;;;;;;;;;;;16.00;77.00;;;;;;5074049;28;19999;-71
2022/05/17 06:52:52;;;;;;;;;;;16.30;77.50;;;;;;5073858;28;19922;-70
2022/05/17 06:55:18;;;;;;;;;;;16.60;75.10;;;;;;5073995;28;20396;-70
2022/05/17 06:57:43;;;;;;;;;;;16.70;72.70;;;;;;5073581;28;19920;-70
2022/05/17 07:00:11;;;;;;;;;;;16.80;73.00;;;;;;5073278;28;19920;-71
2022/05/17 07:02:37;;;;;;;;;;;16.70;74.20;;;;;;5089008;28;19924;-70
2022/05/17 07:05:03;;;;;;;;;;;16.70;73.70;;;;;;5073666;28;19935;-70
2022/05/17 07:07:28;;;;;;;;;;;16.70;74.40;;;;;;5073399;28;20043;-70
2022/05/17 07:15:22;;;;;;;;;;;17.30;72.90;;;;;;5073563;28;20402;-69
2022/05/17 07:17:48;;;;;;;;;;;17.50;70.60;;;;;;5073285;28;19960;-70
2022/05/17 07:20:14;;;;;;;;;;;17.50;69.50;;;;;;5073447;28;20375;-70
2022/05/17 07:22:39;;;;;;;;;;;17.50;69.50;;;;;;5073044;28;19932;-70
2022/05/17 07:25:05;;;;;;;;;;;17.30;70.50;;;;;;5073330;28;20420;-70
2022/05/17 07:27:31;;;;;;;;;;;17.40;68.90;;;;;;5072941;28;19987;-70
2022/05/17 07:29:56;;;;;;;;;;;17.50;69.90;;;;;;5073201;28;20100;-71
2022/05/17 07:32:22;;;;;;;;;;;17.80;68.80;;;;;;5088713;28;20379;-71
2022/05/17 07:34:47;;;;;;;;;;;18.10;68.70;;;;;;5073221;28;19916;-71
2022/05/17 07:37:13;;;;;;;;;;;18.10;68.00;;;;;;5073055;28;20011;-71
2022/05/17 07:39:39;;;;;;;;;;;18.10;68.70;;;;;;5072985;28;20371;-70
2022/05/17 07:42:05;;;;;;;;;;;17.70;67.80;;;;;;5073049;28;19934;-71
2022/05/17 07:44:30;;;;;;;;;;;17.60;68.30;;;;;;5073038;28;19916;-71
2022/05/17 07:46:56;;;;;;;;;;;17.50;68.50;;;;;;5073107;28;20269;-70
2022/05/17 07:49:21;;;;;;;;;;;17.40;69.10;;;;;;5072841;28;20362;-69
2022/05/17 07:51:47;;;;;;;;;;;17.20;67.60;;;;;;5072549;28;20260;-70
2022/05/17 07:54:14;;;;;;;;;;;17.00;68.80;;;;;;5072371;28;19928;-69
2022/05/17 07:56:39;;;;;;;;;;;17.10;68.70;;;;;;5071824;28;20304;-70
2022/05/17 07:59:05;;;;;;;;;;;17.50;70.00;;;;;;5072471;28;20397;-70
2022/05/17 08:01:30;;;;;;;;;;;17.60;69.00;;;;;;5072244;28;20317;-70
2022/05/17 08:03:56;;;;;;;;;;;17.80;67.50;;;;;;5072338;28;20002;-70
2022/05/17 08:06:21;;;;;;;;;;;17.70;68.30;;;;;;5072320;28;19939;-70
2022/05/17 08:08:47;;;;;;;;;;;17.60;68.30;;;;;;5087428;28;20375;-70
2022/05/17 08:11:12;;;;;;;;;;;17.50;68.10;;;;;;5072227;28;19984;-70
2022/05/17 08:13:38;;;;;;;;;;;17.60;69.30;;;;;;5087434;28;20389;-71
2022/05/17 08:16:04;;;;;;;;;;;17.80;69.40;;;;;;5072227;28;19935;-70
2022/05/17 08:18:30;;;;;;;;;;;17.90;69.00;;;;;;5072008;28;20349;-70
2022/05/17 08:20:56;;;;;;;;;;;18.00;68.80;;;;;;5071940;28;19921;-69
2022/05/17 08:23:22;;;;;;;;;;;18.20;67.90;;;;;;5071725;28;19931;-71
2022/05/17 08:28:31;;;;;;;;;;;18.90;67.00;;;;;;5071919;28;20395;-71
2022/05/17 08:30:57;;;;;;;;;;;19.40;66.90;;;;;;5071957;28;19916;-71
2022/05/17 08:33:26;;;;;;;;;;;19.60;65.70;;;;;;5071484;28;19922;-70
2022/05/17 08:36:01;;;;;;;;;;;19.40;65.70;;;;;;5071571;28;19917;-70
2022/05/17 08:38:33;;;;;;;;;;;19.00;67.00;;;;;;5071645;28;20208;-71
2022/05/17 08:41:01;;;;;;;;;;;19.10;65.80;;;;;;5071658;28;20003;-71
2022/05/17 08:43:36;;;;;;;;;;;19.20;66.00;;;;;;5071366;28;20185;-71
2022/05/17 08:46:22;;;;;;;;;;;19.00;65.90;;;;;;5071601;28;19916;-71
2022/05/17 08:48:49;;;;;;;;;;;18.60;64.80;;;;;;5071750;28;20271;-71
2022/05/17 08:51:17;;;;;;;;;;;18.50;65.40;;;;;;5071739;28;19948;-71
2022/05/17 08:53:43;;;;;;;;;;;18.40;65.40;;;;;;5071527;28;20038;-72
2022/05/17 08:56:10;;;;;;;;;;;18.30;66.30;;;;;;5071411;28;19995;-70
2022/05/17 08:58:36;;;;;;;;;;;18.60;65.70;;;;;;5071543;28;19913;-71
2022/05/17 09:01:06;;;;;;;;;;;18.70;65.40;;;;;;5086709;28;20415;-70
2022/05/17 09:03:31;;;;;;;;;;;18.60;65.80;;;;;;5071186;28;20268;-71
2022/05/17 09:06:05;;;;;;;;;;;18.40;65.50;;;;;;5071089;28;19924;-70
2022/05/17 09:08:42;;;;;;;;;;;18.10;66.20;;;;;;5071119;28;20386;-70
2022/05/17 09:11:10;;;;;;;;;;;18.00;66.40;;;;;;5086924;28;20033;-70
2022/05/17 09:13:42;;;;;;;;;;;18.10;66.00;;;;;;5071333;28;19917;-70
2022/05/17 09:16:07;;;;;;;;;;;18.10;66.10;;;;;;5071494;28;19916;-70
2022/05/17 09:18:33;;;;;;;;;;;17.90;67.40;;;;;;5070994;28;20356;-71
2022/05/17 09:20:59;;;;;;;;;;;17.80;66.80;;;;;;5069660;28;20019;-70
2022/05/17 09:23:24;;;;;;;;;;;17.60;67.90;;;;;;5086347;28;20368;-70
2022/05/17 09:25:56;;;;;;;;;;;17.50;68.10;;;;;;5086518;28;20003;-70
2022/05/17 09:28:23;;;;;;;;;;;17.50;68.50;;;;;;5070948;28;19951;-71
2022/05/17 09:31:05;;;;;;;;;;;17.40;69.10;;;;;;5071057;28;19912;-71
2022/05/17 09:33:31;;;;;;;;;;;17.70;69.20;;;;;;5070894;28;19923;-71
2022/05/17 09:35:58;;;;;;;;;;;18.40;67.90;;;;;;5070960;28;19917;-71
2022/05/17 09:38:24;;;;;;;;;;;19.00;66.60;;;;;;5071175;28;19931;-72
2022/05/17 09:40:50;;;;;;;;;;;19.60;65.80;;;;;;5070906;28;20023;-69
2022/05/17 09:43:18;;;;;;;;;;;19.90;65.30;;;;;;5070835;28;20419;-69
2022/05/17 09:45:45;;;;;;;;;;;20.00;64.70;;;;;;5070769;28;19920;-69
2022/05/17 09:48:12;;;;;;;;;;;19.60;65.40;;;;;;5070955;28;19915;-71
2022/05/17 09:53:37;;;;;;;;;;;20.00;63.70;;;;;;5071074;28;19923;-71
2022/05/17 09:56:04;;;;;;;;;;;20.30;63.00;;;;;;5071083;28;19982;-71
2022/05/17 09:58:33;;;;;;;;;;;19.80;63.70;;;;;;5070677;28;20272;-69
2022/05/17 10:01:01;;;;;;;;;;;19.50;64.30;;;;;;5070874;28;20005;-71
2022/05/17 10:03:37;;;;;;;;;;;19.50;65.00;;;;;;5070922;28;19912;-71
2022/05/17 10:06:07;;;;;;;;;;;19.70;64.60;;;;;;5070873;28;20051;-71
2022/05/17 10:08:56;;;;;;;;;;;19.60;63.40;;;;;;5071139;28;20022;-71
2022/05/17 10:11:23;;;;;;;;;;;19.40;64.10;;;;;;5071110;28;19924;-70
2022/05/17 10:13:57;;;;;;;;;;;19.20;65.80;;;;;;5069192;28;19923;-70
2022/05/17 10:16:23;;;;;;;;;;;19.50;63.60;;;;;;5070700;28;19912;-70
2022/05/17 10:18:53;;;;;;;;;;;20.00;62.70;;;;;;5071710;28;19923;-70
2022/05/17 10:21:34;;;;;;;;;;;20.30;63.50;;;;;;5074012;28;20007;-71
2022/05/17 10:24:11;;;;;;;;;;;20.20;62.60;;;;;;5074194;28;19928;-71
2022/05/17 10:26:39;;;;;;;;;;;19.70;64.20;;;;;;5073940;28;19916;-70
2022/05/17 10:29:09;;;;;;;;;;;19.30;65.40;;;;;;5074171;28;19912;-72
2022/05/17 10:31:38;;;;;;;;;;;19.60;65.00;;;;;;5073887;28;19995;-70
2022/05/17 10:34:10;;;;;;;;;;;20.10;64.40;;;;;;5074034;28;20074;-70
2022/05/17 10:36:38;;;;;;;;;;;20.80;62.30;;;;;;5074019;28;19982;-69
2022/05/17 10:39:22;;;;;;;;;;;20.90;61.80;;;;;;5073948;28;19920;-71
2022/05/17 10:41:48;;;;;;;;;;;20.80;62.30;;;;;;5074323;28;19923;-71
2022/05/17 10:44:16;;;;;;;;;;;20.60;63.00;;;;;;5089350;28;19912;-71
2022/05/17 10:46:47;;;;;;;;;;;20.70;63.00;;;;;;5073711;28;19912;-70
2022/05/17 10:49:18;;;;;;;;;;;20.70;63.50;;;;;;5073971;28;19935;-70
2022/05/17 10:51:46;;;;;;;;;;;21.00;62.00;;;;;;5073885;28;19912;-71
2022/05/17 10:54:21;;;;;;;;;;;20.70;61.70;;;;;;5072059;28;19916;-70
2022/05/17 10:57:02;;;;;;;;;;;20.70;63.20;;;;;;5073553;28;19920;-71
2022/05/17 10:59:41;;;;;;;;;;;20.40;63.00;;;;;;5073655;28;19923;-70
2022/05/17 11:02:25;;;;;;;;;;;20.10;62.50;;;;;;5073493;28;19923;-71
2022/05/17 11:05:09;;;;;;;;;;;20.30;62.40;;;;;;5073586;28;19913;-70
2022/05/17 11:07:34;;;;;;;;;;;20.20;63.00;;;;;;5072046;28;19912;-71
2022/05/17 11:10:18;;;;;;;;;;;20.00;63.10;;;;;;5073134;28;20019;-71
2022/05/17 11:12:48;;;;;;;;;;;20.00;62.70;;;;;;5073149;28;19916;-71
2022/05/17 11:15:18;;;;;;;;;;;19.80;62.50;;;;;;5073430;28;20348;-72
2022/05/17 11:17:54;;;;;;;;;;;19.60;62.90;;;;;;5073057;28;20320;-71
2022/05/17 11:20:35;;;;;;;;;;;19.40;63.70;;;;;;5073355;28;19948;-71
2022/05/17 11:23:01;;;;;;;;;;;19.60;63.60;;;;;;5073367;28;20177;-71
2022/05/17 11:25:40;;;;;;;;;;;19.80;62.50;;;;;;5073428;28;20305;-71
2022/05/17 11:28:09;;;;;;;;;;;19.80;62.10;;;;;;5073487;28;19955;-70
2022/05/17 11:30:49;;;;;;;;;;;19.90;62.00;;;;;;5073001;28;19916;-71
2022/05/17 11:33:24;;;;;;;;;;;20.10;61.60;;;;;;5072899;28;19962;-71
2022/05/17 11:35:51;;;;;;;;;;;20.40;61.40;;;;;;5072668;28;19927;-70
2022/05/17 11:38:19;;;;;;;;;;;21.00;61.00;;;;;;5072750;28;20315;-71
2022/05/17 11:40:47;;;;;;;;;;;21.10;59.50;;;;;;5072614;28;19917;-71
2022/05/17 11:46:03;;;;;;;;;;;20.40;60.60;;;;;;5073131;28;19924;-70
2022/05/17 11:48:48;;;;;;;;;;;20.10;61.80;;;;;;5072452;28;19952;-71
2022/05/17 11:51:13;;;;;;;;;;;20.10;60.10;;;;;;5072472;28;19920;-70
2022/05/17 11:53:43;;;;;;;;;;;20.10;60.40;;;;;;5072505;28;20263;-71
2022/05/17 11:56:33;;;;;;;;;;;20.30;59.90;;;;;;5072775;28;19920;-71
2022/05/17 11:59:00;;;;;;;;;;;20.40;59.10;;;;;;5072790;28;20298;-71
2022/05/17 12:01:29;;;;;;;;;;;20.60;58.70;;;;;;5072189;28;19924;-71
2022/05/17 12:03:54;;;;;;;;;;;20.60;58.40;;;;;;5072487;28;19913;-71
2022/05/17 12:06:28;;;;;;;;;;;20.70;57.60;;;;;;5072427;28;19973;-71
2022/05/17 12:08:54;;;;;;;;;;;20.90;57.90;;;;;;5072089;28;19909;-71
2022/05/17 12:11:28;;;;;;;;;;;21.10;56.80;;;;;;5072184;28;20323;-71
2022/05/17 12:14:01;;;;;;;;;;;21.10;55.90;;;;;;5087501;28;19918;-70
2022/05/17 12:16:29;;;;;;;;;;;20.90;55.20;;;;;;5053995;28;19959;-70
2022/05/17 12:19:13;;;;;;;;;;;20.90;54.20;;;;;;5072268;28;19908;-71
2022/05/17 12:22:00;;;;;;;;;;;21.10;52.90;;;;;;5071910;28;19924;-71
2022/05/17 12:24:31;;;;;;;;;;;21.40;50.60;;;;;;5071972;28;19922;-70
2022/05/17 12:27:15;;;;;;;;;;;21.20;50.40;;;;;;5071784;28;20398;-71
2022/05/17 12:32:34;;;;;;;;;;;21.10;52.20;;;;;;5065246;28;19937;-71
2022/05/17 12:34:59;;;;;;;;;;;21.20;50.90;;;;;;5071428;28;19967;-71
2022/05/17 12:37:26;;;;;;;;;;;21.30;49.80;;;;;;5071679;28;19940;-71
2022/05/17 12:45:24;;;;;;;;;;;21.00;48.00;;;;;;5071616;28;20343;-70
2022/05/17 12:47:51;;;;;;;;;;;20.80;48.00;;;;;;5071662;28;19913;-70
2022/05/17 12:50:37;;;;;;;;;;;20.50;48.00;;;;;;5087291;28;19913;-71
2022/05/17 12:53:02;;;;;;;;;;;20.50;48.10;;;;;;5059409;28;20332;-70
2022/05/17 12:55:29;;;;;;;;;;;20.40;48.00;;;;;;5071383;28;20013;-70
2022/05/17 12:57:55;;;;;;;;;;;20.50;48.00;;;;;;5071323;28;19951;-70
2022/05/17 13:00:25;;;;;;;;;;;20.50;47.60;;;;;;5070883;28;20401;-70
2022/05/17 13:02:54;;;;;;;;;;;20.40;48.10;;;;;;5071478;28;19962;-70
2022/05/17 13:05:35;;;;;;;;;;;20.40;48.90;;;;;;5071361;28;20400;-71
2022/05/17 13:08:04;;;;;;;;;;;20.30;49.40;;;;;;5071152;28;19912;-70
2022/05/17 13:10:29;;;;;;;;;;;20.30;47.50;;;;;;5069730;28;19966;-71
2022/05/17 13:12:55;;;;;;;;;;;20.20;49.00;;;;;;5071349;28;19975;-71
2022/05/17 13:15:22;;;;;;;;;;;20.20;48.70;;;;;;5071455;28;19912;-71
2022/05/17 13:17:50;;;;;;;;;;;20.20;49.00;;;;;;5070890;28;20019;-70
2022/05/17 13:20:21;;;;;;;;;;;20.10;49.90;;;;;;5086456;28;20598;-70
2022/05/17 13:22:48;;;;;;;;;;;20.10;50.30;;;;;;5070807;28;19936;-70
2022/05/17 13:25:16;;;;;;;;;;;20.10;49.90;;;;;;5071279;28;20446;-71
2022/05/17 13:27:44;;;;;;;;;;;20.00;51.10;;;;;;5071200;28;19920;-71
2022/05/17 13:30:29;;;;;;;;;;;20.00;51.00;;;;;;5071169;28;19974;-70
2022/05/17 13:32:55;;;;;;;;;;;19.90;51.00;;;;;;5071040;28;19916;-71
2022/05/17 13:35:23;;;;;;;;;;;19.90;51.00;;;;;;5071145;28;19951;-71
2022/05/17 13:37:53;;;;;;;;;;;19.90;51.70;;;;;;5070796;28;19913;-71
2022/05/17 13:40:38;;;;;;;;;;;19.90;52.20;;;;;;5071148;28;19912;-70
2022/05/17 13:43:37;;;;;;;;;;;19.70;51.80;;;;;;5071033;28;19912;-70
2022/05/17 13:46:05;;;;;;;;;;;19.60;51.50;;;;;;5037083;28;19916;-70
2022/05/17 13:48:31;;;;;;;;;;;19.50;52.20;;;;;;5070865;28;19916;-71
2022/05/17 13:50:58;;;;;;;;;;;19.50;52.30;;;;;;5070767;28;20418;-70
2022/05/17 13:53:25;;;;;;;;;;;19.30;52.20;;;;;;5071364;28;20364;-70
2022/05/17 13:55:51;;;;;;;;;;;19.20;52.70;;;;;;5073644;28;19916;-70
2022/05/17 13:58:20;;;;;;;;;;;19.10;53.40;;;;;;5075030;28;20009;-70
2022/05/17 14:00:57;;;;;;;;;;;19.00;53.20;;;;;;5090068;28;19974;-71
2022/05/17 14:03:23;;;;;;;;;;;19.00;53.50;;;;;;5074234;28;19969;-70
2022/05/17 14:05:54;;;;;;;;;;;19.00;53.60;;;;;;5074483;28;20355;-70
2022/05/17 14:14:00;;;;;;;;;;;18.80;53.50;;;;;;5074365;28;19970;-71
2022/05/17 14:16:28;;;;;;;;;;;18.60;54.10;;;;;;5074489;28;20363;-70
2022/05/17 14:18:54;;;;;;;;;;;18.60;53.80;;;;;;5074143;28;19962;-71
2022/05/17 14:21:19;;;;;;;;;;;18.60;53.60;;;;;;5073891;28;19929;-71
2022/05/17 14:23:50;;;;;;;;;;;18.60;53.40;;;;;;5073940;28;19913;-71
2022/05/17 14:26:18;;;;;;;;;;;18.50;53.60;;;;;;5089612;28;19913;-71
2022/05/17 14:28:44;;;;;;;;;;;18.50;53.50;;;;;;5073826;28;19917;-71
2022/05/17 14:31:18;;;;;;;;;;;18.50;54.10;;;;;;5073877;28;19912;-71
2022/05/17 14:33:44;;;;;;;;;;;18.40;53.90;;;;;;5073722;28;19921;-70
2022/05/17 14:36:13;;;;;;;;;;;18.40;53.10;;;;;;5074196;28;20410;-71
2022/05/17 14:38:39;;;;;;;;;;;18.40;53.00;;;;;;5073871;28;20391;-71
2022/05/17 14:41:04;;;;;;;;;;;18.30;53.50;;;;;;5074218;28;19917;-71
2022/05/17 14:43:30;;;;;;;;;;;18.40;53.70;;;;;;5073627;28;19944;-71
2022/05/17 14:45:56;;;;;;;;;;;18.30;54.50;;;;;;5073783;28;19935;-71
2022/05/17 14:48:22;;;;;;;;;;;18.30;54.10;;;;;;5073754;28;19919;-71